Time;durP1;ratioP1;P1;durP2;ratioP2;P2;SDS_P1;SDS_P2;PMS_P1;PMS_P2;Temp;Humidity;BMP_temperature;BMP_pressure;BME280_temperature;BME280_humidity;BME280_pressure;Samples;Min_cycle;Max_cycle;Signal;HPM_P1;HPM_P2
2021/09/08 00:00:46;;;;;;;15.27;13.32;;;;;;;;;;5011758;28;20049;-65
2021/09/08 00:03:13;;;;;;;15.32;12.90;;;;;;;;;;5011755;28;20057;-65
2021/09/08 00:05:40;;;;;;;18.40;12.90;;;;;;;;;;5011928;28;20514;-64
2021/09/08 00:08:07;;;;;;;19.75;14.02;;;;;;;;;;5011995;28;20053;-65
2021/09/08 00:10:34;;;;;;;18.10;14.35;;;;;;;;;;5011729;28;20050;-65
2021/09/08 00:13:00;;;;;;;17.33;13.35;;;;;;;;;;5011728;28;20054;-65
2021/09/08 00:15:27;;;;;;;16.25;13.65;;;;;;;;;;5011802;28;20054;-65
2021/09/08 00:17:54;;;;;;;16.63;13.10;;;;;;;;;;5011767;28;20085;-65
2021/09/08 00:20:20;;;;;;;17.65;12.70;;;;;;;;;;5011728;28;20057;-63
2021/09/08 00:22:47;;;;;;;17.70;13.50;;;;;;;;;;5011401;28;20566;-63
2021/09/08 00:25:13;;;;;;;16.10;13.45;;;;;;;;;;5013422;28;20065;-63
2021/09/08 00:27:40;;;;;;;17.42;13.38;;;;;;;;;;5015516;28;20058;-63
2021/09/08 00:30:08;;;;;;;19.05;13.07;;;;;;;;;;5015558;28;20053;-63
2021/09/08 00:32:35;;;;;;;16.60;13.40;;;;;;;;;;5015183;28;20108;-63
2021/09/08 00:35:03;;;;;;;16.20;13.77;;;;;;;;;;5015414;28;20050;-63
2021/09/08 00:37:30;;;;;;;18.38;14.25;;;;;;;;;;5015169;28;20132;-62
2021/09/08 00:39:57;;;;;;;18.02;13.73;;;;;;;;;;5015394;28;20111;-63
2021/09/08 00:42:23;;;;;;;15.75;13.68;;;;;;;;;;5015112;28;20050;-62
2021/09/08 00:44:50;;;;;;;17.40;13.20;;;;;;;;;;5015067;28;20045;-62
2021/09/08 00:47:17;;;;;;;18.73;15.27;;;;;;;;;;5015209;28;20054;-62
2021/09/08 00:49:46;;;;;;;17.55;13.63;;;;;;;;;;5015044;28;20049;-62
2021/09/08 00:52:15;;;;;;;16.35;12.43;;;;;;;;;;5015116;28;20050;-62
2021/09/08 00:54:47;;;;;;;18.13;13.82;;;;;;;;;;5014922;28;20124;-63
2021/09/08 00:57:14;;;;;;;18.08;13.27;;;;;;;;;;5014950;28;20463;-62
2021/09/08 00:59:41;;;;;;;17.30;13.40;;;;;;;;;;5014818;28;20508;-63
2021/09/08 01:02:08;;;;;;;16.67;14.15;;;;;;;;;;5014767;28;20131;-62
2021/09/08 01:04:36;;;;;;;19.90;14.57;;;;;;;;;;5014746;28;20054;-62
2021/09/08 01:07:06;;;;;;;18.42;14.15;;;;;;;;;;5014854;28;20532;-62
2021/09/08 01:09:33;;;;;;;16.08;13.15;;;;;;;;;;5014714;28;20501;-63
2021/09/08 01:12:50;;;;;;;16.95;13.07;;;;;;;;;;5014596;28;20053;-62
2021/09/08 01:15:17;;;;;;;19.42;13.95;;;;;;;;;;5014638;28;20041;-62
2021/09/08 01:17:44;;;;;;;16.52;13.50;;;;;;;;;;5014582;28;20049;-62
2021/09/08 01:20:12;;;;;;;16.65;13.32;;;;;;;;;;5014606;28;20056;-62
2021/09/08 01:22:49;;;;;;;18.55;13.68;;;;;;;;;;5014264;28;20464;-62
2021/09/08 01:25:20;;;;;;;18.63;13.38;;;;;;;;;;5014445;28;20488;-63
2021/09/08 01:27:49;;;;;;;19.73;14.60;;;;;;;;;;5014351;28;20049;-63
2021/09/08 01:30:20;;;;;;;16.40;13.15;;;;;;;;;;5014335;28;20543;-63
2021/09/08 01:32:50;;;;;;;19.77;14.65;;;;;;;;;;5016418;28;20382;-63
2021/09/08 01:35:17;;;;;;;18.73;14.52;;;;;;;;;;5014792;28;20493;-63
2021/09/08 01:37:48;;;;;;;17.48;14.00;;;;;;;;;;5014400;28;20088;-62
2021/09/08 01:40:16;;;;;;;18.70;14.10;;;;;;;;;;5014290;28;20107;-63
2021/09/08 01:42:43;;;;;;;18.92;14.85;;;;;;;;;;5013733;28;20058;-63
2021/09/08 01:45:14;;;;;;;17.15;13.70;;;;;;;;;;5013888;28;20547;-63
2021/09/08 01:47:41;;;;;;;18.23;14.60;;;;;;;;;;5014096;28;20089;-63
2021/09/08 01:50:08;;;;;;;17.65;12.93;;;;;;;;;;5014059;28;20464;-63
2021/09/08 01:52:35;;;;;;;18.38;13.77;;;;;;;;;;5013836;28;20540;-63
2021/09/08 01:55:02;;;;;;;17.77;13.85;;;;;;;;;;5013946;28;20041;-63
2021/09/08 01:57:29;;;;;;;16.80;13.57;;;;;;;;;;5013583;28;20520;-62
2021/09/08 01:59:56;;;;;;;16.05;13.25;;;;;;;;;;5013932;28;20087;-63
2021/09/08 02:02:22;;;;;;;16.40;13.60;;;;;;;;;;4996207;28;20053;-62
2021/09/08 02:04:49;;;;;;;16.77;13.40;;;;;;;;;;5013594;28;20049;-62
2021/09/08 02:07:16;;;;;;;17.58;12.82;;;;;;;;;;5013671;28;20054;-62
2021/09/08 02:09:43;;;;;;;16.98;13.48;;;;;;;;;;5013572;28;20054;-63
2021/09/08 02:12:09;;;;;;;17.67;14.00;;;;;;;;;;5013853;28;20061;-62
2021/09/08 02:14:36;;;;;;;15.65;13.20;;;;;;;;;;5015291;28;20050;-63
2021/09/08 02:17:03;;;;;;;18.90;14.75;;;;;;;;;;5019181;28;20108;-62
2021/09/08 02:19:29;;;;;;;20.30;14.95;;;;;;;;;;5018227;28;20061;-62
2021/09/08 02:21:56;;;;;;;14.90;13.25;;;;;;;;;;5018081;28;20050;-62
2021/09/08 02:24:22;;;;;;;16.73;13.45;;;;;;;;;;5018354;28;20065;-62
2021/09/08 02:26:49;;;;;;;18.95;14.43;;;;;;;;;;5018571;28;20057;-62
2021/09/08 02:29:16;;;;;;;17.75;14.98;;;;;;;;;;5018851;28;20050;-62
2021/09/08 02:31:42;;;;;;;19.92;15.15;;;;;;;;;;5018931;28;20572;-62
2021/09/08 02:34:09;;;;;;;19.52;14.20;;;;;;;;;;5019091;28;20046;-62
2021/09/08 02:36:36;;;;;;;18.70;14.75;;;;;;;;;;5052368;22;20473;-66
2021/09/08 02:39:03;;;;;;;19.15;14.30;;;;;;;;;;5052996;28;20106;-66
2021/09/08 02:41:29;;;;;;;16.70;14.25;;;;;;;;;;5052703;28;20052;-66
2021/09/08 02:43:56;;;;;;;21.25;14.60;;;;;;;;;;5052418;28;20102;-66
2021/09/08 02:46:23;;;;;;;20.85;15.27;;;;;;;;;;5052773;28;20045;-66
2021/09/08 02:48:49;;;;;;;22.67;16.45;;;;;;;;;;5051941;28;20056;-66
2021/09/08 02:51:16;;;;;;;17.83;14.50;;;;;;;;;;5052637;28;20045;-66
2021/09/08 02:53:43;;;;;;;19.00;15.02;;;;;;;;;;5052211;28;20397;-66
2021/09/08 02:56:09;;;;;;;23.88;15.27;;;;;;;;;;5052491;28;20190;-66
2021/09/08 02:58:36;;;;;;;19.40;15.18;;;;;;;;;;5052323;28;20052;-66
2021/09/08 03:01:03;;;;;;;18.63;16.08;;;;;;;;;;5052422;28;20134;-66
2021/09/08 03:03:30;;;;;;;16.02;14.30;;;;;;;;;;5052171;28;20056;-66
2021/09/08 03:05:57;;;;;;;18.33;14.60;;;;;;;;;;5052286;28;20094;-66
2021/09/08 03:08:23;;;;;;;23.33;13.93;;;;;;;;;;5052351;28;20455;-66
2021/09/08 03:10:50;;;;;;;19.02;14.70;;;;;;;;;;5052037;28;20099;-66
2021/09/08 03:13:17;;;;;;;21.25;15.93;;;;;;;;;;5051956;28;20049;-66
2021/09/08 03:15:45;;;;;;;19.45;15.02;;;;;;;;;;5052115;28;20044;-66
2021/09/08 03:18:12;;;;;;;17.55;14.85;;;;;;;;;;5052203;28;20102;-66
2021/09/08 03:20:39;;;;;;;18.00;14.32;;;;;;;;;;5052063;28;20056;-66
2021/09/08 03:23:06;;;;;;;18.23;14.98;;;;;;;;;;5051802;28;20110;-66
2021/09/08 03:25:33;;;;;;;18.13;13.95;;;;;;;;;;5051937;28;20127;-66
2021/09/08 03:27:59;;;;;;;18.33;15.15;;;;;;;;;;5051897;28;20061;-66
2021/09/08 03:30:26;;;;;;;17.23;14.27;;;;;;;;;;5051846;28;20049;-66
2021/09/08 03:32:52;;;;;;;20.88;14.57;;;;;;;;;;5051680;28;20049;-66
2021/09/08 03:35:20;;;;;;;21.30;14.70;;;;;;;;;;5051898;28;20110;-66
2021/09/08 03:37:47;;;;;;;20.88;16.08;;;;;;;;;;5051611;28;20061;-66
2021/09/08 03:40:13;;;;;;;20.95;15.40;;;;;;;;;;5051677;28;20053;-66
2021/09/08 03:42:40;;;;;;;18.63;14.57;;;;;;;;;;5051470;28;20098;-66
2021/09/08 03:45:08;;;;;;;21.40;14.60;;;;;;;;;;5051837;28;20053;-66
2021/09/08 03:47:36;;;;;;;18.45;14.50;;;;;;;;;;5051515;28;20499;-66
2021/09/08 03:50:03;;;;;;;19.05;14.20;;;;;;;;;;5051702;28;20052;-66
2021/09/08 03:52:30;;;;;;;19.85;15.75;;;;;;;;;;5051323;28;20094;-66
2021/09/08 03:54:57;;;;;;;21.38;15.60;;;;;;;;;;5051443;28;20041;-66
2021/09/08 03:57:23;;;;;;;18.23;14.90;;;;;;;;;;5051598;28;20053;-66
2021/09/08 03:59:50;;;;;;;20.77;15.43;;;;;;;;;;5052687;28;20099;-66
2021/09/08 04:02:16;;;;;;;20.13;15.00;;;;;;;;;;5055513;28;20082;-66
2021/09/08 04:04:43;;;;;;;22.00;15.00;;;;;;;;;;5055668;28;20087;-66
2021/09/08 04:07:10;;;;;;;22.48;14.98;;;;;;;;;;5055864;28;20049;-66
2021/09/08 04:09:36;;;;;;;20.35;14.68;;;;;;;;;;5055596;28;20492;-66
2021/09/08 04:12:03;;;;;;;20.35;15.50;;;;;;;;;;5055297;28;20495;-66
2021/09/08 04:14:31;;;;;;;19.08;15.25;;;;;;;;;;5055567;28;20553;-66
2021/09/08 04:16:57;;;;;;;23.48;17.17;;;;;;;;;;5055266;28;20083;-66
2021/09/08 04:19:24;;;;;;;18.80;15.32;;;;;;;;;;5055433;28;20106;-66
2021/09/08 04:21:51;;;;;;;20.10;15.32;;;;;;;;;;5055175;28;20056;-66
2021/09/08 04:24:17;;;;;;;20.92;15.85;;;;;;;;;;5055241;28;20045;-66
2021/09/08 04:26:44;;;;;;;17.50;14.73;;;;;;;;;;5055250;28;20415;-66
2021/09/08 04:29:10;;;;;;;21.98;15.73;;;;;;;;;;5055503;28;20099;-66
2021/09/08 04:31:37;;;;;;;20.83;15.95;;;;;;;;;;5055070;28;20045;-66
2021/09/08 04:34:07;;;;;;;22.77;16.42;;;;;;;;;;5055070;28;20102;-66
2021/09/08 04:36:34;;;;;;;18.88;16.05;;;;;;;;;;5054777;28;20557;-66
2021/09/08 04:39:02;;;;;;;19.52;15.60;;;;;;;;;;5055023;28;20049;-66
2021/09/08 04:41:28;;;;;;;21.60;16.77;;;;;;;;;;5054898;28;20100;-66
2021/09/08 04:43:56;;;;;;;20.30;15.82;;;;;;;;;;5054929;28;20201;-66
2021/09/08 04:46:23;;;;;;;20.80;15.40;;;;;;;;;;5054852;28;20049;-66
2021/09/08 04:48:49;;;;;;;21.38;16.25;;;;;;;;;;5054806;28;20478;-66
2021/09/08 04:51:16;;;;;;;23.08;16.10;;;;;;;;;;5054805;28;20099;-66
2021/09/08 04:53:44;;;;;;;21.23;16.17;;;;;;;;;;5054444;28;20485;-66
2021/09/08 04:56:10;;;;;;;19.33;16.30;;;;;;;;;;5054687;28;20045;-66
2021/09/08 04:58:37;;;;;;;22.33;16.77;;;;;;;;;;5055045;28;20053;-66
2021/09/08 05:01:04;;;;;;;22.02;15.93;;;;;;;;;;5054745;28;20102;-66
2021/09/08 05:03:32;;;;;;;19.55;16.30;;;;;;;;;;5054377;28;20053;-66
2021/09/08 05:05:59;;;;;;;22.10;17.20;;;;;;;;;;5054660;28;20048;-66
2021/09/08 05:08:26;;;;;;;22.65;17.40;;;;;;;;;;5054736;28;20472;-66
2021/09/08 05:10:53;;;;;;;22.05;16.55;;;;;;;;;;5054061;28;20110;-66
2021/09/08 05:13:19;;;;;;;20.40;16.33;;;;;;;;;;5054190;28;20056;-66
2021/09/08 05:15:46;;;;;;;20.42;16.00;;;;;;;;;;5054126;28;20426;-66
2021/09/08 05:18:13;;;;;;;20.60;16.38;;;;;;;;;;5054321;28;20059;-66
2021/09/08 05:20:39;;;;;;;21.75;16.70;;;;;;;;;;5054329;28;20053;-65
2021/09/08 05:23:06;;;;;;;21.75;16.58;;;;;;;;;;5054252;28;20057;-66
2021/09/08 05:25:32;;;;;;;25.55;17.65;;;;;;;;;;5054060;28;20088;-66
2021/09/08 05:27:59;;;;;;;21.20;15.98;;;;;;;;;;5054040;28;20540;-66
2021/09/08 05:30:26;;;;;;;22.90;15.88;;;;;;;;;;5054142;28;20056;-66
2021/09/08 05:32:52;;;;;;;21.65;16.70;;;;;;;;;;5053794;28;20124;-66
2021/09/08 05:35:19;;;;;;;26.48;18.15;;;;;;;;;;5053901;28;20056;-65
2021/09/08 05:37:45;;;;;;;22.73;16.30;;;;;;;;;;5053752;28;20466;-65
2021/09/08 05:40:15;;;;;;;20.45;15.90;;;;;;;;;;5053903;28;20080;-65
2021/09/08 05:42:41;;;;;;;23.45;16.85;;;;;;;;;;5053587;28;20048;-65
2021/09/08 05:45:08;;;;;;;22.92;16.15;;;;;;;;;;5053970;28;20462;-65
2021/09/08 05:47:36;;;;;;;19.45;15.93;;;;;;;;;;5053534;28;20049;-65
2021/09/08 05:50:03;;;;;;;21.67;17.15;;;;;;;;;;5054074;28;20053;-65
2021/09/08 05:52:29;;;;;;;20.27;16.10;;;;;;;;;;5053439;28;20057;-65
2021/09/08 05:54:56;;;;;;;20.02;16.02;;;;;;;;;;5053574;28;20495;-65
2021/09/08 05:57:22;;;;;;;22.02;16.55;;;;;;;;;;5053491;28;20126;-66
2021/09/08 05:59:49;;;;;;;20.88;15.15;;;;;;;;;;5053453;28;20573;-66
2021/09/08 06:02:16;;;;;;;26.30;16.10;;;;;;;;;;5053289;28;20049;-66
2021/09/08 06:04:43;;;;;;;25.15;15.90;;;;;;;;;;5053395;28;20056;-66
2021/09/08 06:07:09;;;;;;;23.80;16.08;;;;;;;;;;5053259;28;20049;-66
2021/09/08 06:09:36;;;;;;;20.60;15.27;;;;;;;;;;5053286;28;20110;-65
2021/09/08 06:12:03;;;;;;;22.70;16.50;;;;;;;;;;5053281;28;20095;-66
2021/09/08 06:14:30;;;;;;;23.50;15.45;;;;;;;;;;5053232;28;20573;-66
2021/09/08 06:16:57;;;;;;;22.27;17.60;;;;;;;;;;5053232;28;20488;-65
2021/09/08 06:19:23;;;;;;;41.40;18.48;;;;;;;;;;5053282;28;20049;-65
2021/09/08 06:21:50;;;;;;;29.75;18.60;;;;;;;;;;5052380;28;20118;-65
2021/09/08 06:24:17;;;;;;;26.85;17.08;;;;;;;;;;5052817;28;20045;-66
2021/09/08 06:26:43;;;;;;;31.60;18.88;;;;;;;;;;5052854;28;20465;-66
2021/09/08 06:29:10;;;;;;;24.08;16.40;;;;;;;;;;5053100;28;20045;-66
2021/09/08 06:31:36;;;;;;;25.02;18.50;;;;;;;;;;5052741;28;20131;-66
2021/09/08 06:34:03;;;;;;;26.98;16.90;;;;;;;;;;5052971;28;20308;-66
2021/09/08 06:36:30;;;;;;;20.35;15.70;;;;;;;;;;5052677;28;20049;-66
2021/09/08 06:38:57;;;;;;;21.92;17.15;;;;;;;;;;5053037;28;20466;-66
2021/09/08 06:41:23;;;;;;;23.25;17.33;;;;;;;;;;5052868;28;20048;-66
2021/09/08 06:43:50;;;;;;;20.85;16.85;;;;;;;;;;5052444;28;20052;-65
2021/09/08 06:46:17;;;;;;;18.85;16.10;;;;;;;;;;5052834;28;20049;-65
2021/09/08 06:48:43;;;;;;;24.33;16.33;;;;;;;;;;5052536;28;20183;-65
2021/09/08 06:51:11;;;;;;;20.30;16.40;;;;;;;;;;5052634;28;20470;-66
2021/09/08 06:53:37;;;;;;;21.25;16.98;;;;;;;;;;5052182;28;20082;-66
2021/09/08 06:56:05;;;;;;;19.75;15.20;;;;;;;;;;5052393;28;20064;-66
2021/09/08 06:58:32;;;;;;;17.77;14.90;;;;;;;;;;5052379;28;20101;-65
2021/09/08 07:00:59;;;;;;;23.77;15.70;;;;;;;;;;5052635;28;20049;-66
2021/09/08 07:03:26;;;;;;;25.27;16.42;;;;;;;;;;5052019;28;20080;-66
2021/09/08 07:05:53;;;;;;;19.17;15.23;;;;;;;;;;5052078;28;20053;-67
2021/09/08 07:08:19;;;;;;;19.20;14.77;;;;;;;;;;5052364;28;20470;-66
2021/09/08 07:10:48;;;;;;;18.23;14.18;;;;;;;;;;5052172;28;20049;-66
2021/09/08 07:13:15;;;;;;;17.92;13.75;;;;;;;;;;5051943;28;20052;-66
2021/09/08 07:15:41;;;;;;;16.25;13.23;;;;;;;;;;5052176;28;20462;-67
2021/09/08 07:18:08;;;;;;;16.02;12.90;;;;;;;;;;5052127;28;20098;-67
2021/09/08 07:20:35;;;;;;;17.60;13.05;;;;;;;;;;5051808;28;20049;-67
2021/09/08 07:23:01;;;;;;;14.20;12.70;;;;;;;;;;5051693;28;20106;-67
2021/09/08 07:25:28;;;;;;;13.88;12.05;;;;;;;;;;5034163;28;20056;-67
2021/09/08 07:27:55;;;;;;;16.92;13.07;;;;;;;;;;5051556;28;20057;-67
2021/09/08 07:30:21;;;;;;;15.63;13.63;;;;;;;;;;5051685;28;20053;-67
2021/09/08 07:32:48;;;;;;;16.15;12.68;;;;;;;;;;5051421;28;20048;-68
2021/09/08 07:35:14;;;;;;;16.73;12.07;;;;;;;;;;5051646;28;20451;-67
2021/09/08 07:37:41;;;;;;;15.07;11.98;;;;;;;;;;5051229;28;20045;-67
2021/09/08 07:40:09;;;;;;;15.23;11.80;;;;;;;;;;5051602;28;20103;-67
2021/09/08 07:42:36;;;;;;;14.43;12.07;;;;;;;;;;5051235;28;20119;-67
2021/09/08 07:45:07;;;;;;;19.90;12.35;;;;;;;;;;5051617;28;20118;-67
2021/09/08 07:47:34;;;;;;;16.05;12.52;;;;;;;;;;5051529;28;20041;-67
2021/09/08 07:50:00;;;;;;;15.82;12.73;;;;;;;;;;5051419;28;20141;-67
2021/09/08 07:52:27;;;;;;;12.50;11.15;;;;;;;;;;5051142;28;20283;-67
2021/09/08 07:54:54;;;;;;;14.23;11.02;;;;;;;;;;5051505;28;20045;-67
2021/09/08 07:57:20;;;;;;;14.77;11.18;;;;;;;;;;5051231;28;20118;-67
2021/09/08 07:59:48;;;;;;;14.95;10.80;;;;;;;;;;5051234;28;20106;-67
2021/09/08 08:02:15;;;;;;;13.75;11.23;;;;;;;;;;5051116;28;20048;-67
2021/09/08 08:04:42;;;;;;;14.45;11.07;;;;;;;;;;5051192;28;20060;-67
2021/09/08 08:07:08;;;;;;;15.23;11.15;;;;;;;;;;5051259;28;20482;-67
2021/09/08 08:09:35;;;;;;;11.75;10.13;;;;;;;;;;5033547;28;20095;-67
2021/09/08 08:12:02;;;;;;;14.40;10.15;;;;;;;;;;5051313;28;20053;-67
2021/09/08 08:14:29;;;;;;;14.18;9.77;;;;;;;;;;5033600;28;20075;-67
2021/09/08 08:16:55;;;;;;;10.32;8.15;;;;;;;;;;5051055;28;20479;-67
2021/09/08 08:19:22;;;;;;;11.80;8.02;;;;;;;;;;5051205;28;20045;-67
2021/09/08 08:21:49;;;;;;;12.50;8.25;;;;;;;;;;5050955;28;20173;-68
2021/09/08 08:24:15;;;;;;;11.57;8.65;;;;;;;;;;5051139;28;20049;-67
2021/09/08 08:26:42;;;;;;;9.45;7.90;;;;;;;;;;5051020;28;20049;-67
2021/09/08 08:29:08;;;;;;;12.23;8.10;;;;;;;;;;5051100;28;20496;-67
2021/09/08 08:31:35;;;;;;;11.80;7.25;;;;;;;;;;5051071;28;20056;-67
2021/09/08 08:34:02;;;;;;;9.55;6.80;;;;;;;;;;5050913;28;20087;-67
2021/09/08 08:36:29;;;;;;;10.70;7.22;;;;;;;;;;5071704;23;21053;-64
2021/09/08 08:38:55;;;;;;;9.10;7.43;;;;;;;;;;5051034;28;20053;-64
2021/09/08 08:41:23;;;;;;;15.02;7.28;;;;;;;;;;5051213;28;20110;-64
2021/09/08 08:43:49;;;;;;;9.70;7.07;;;;;;;;;;5033529;28;20526;-64
2021/09/08 08:46:16;;;;;;;9.60;7.57;;;;;;;;;;5018982;28;20053;-64
2021/09/08 08:48:43;;;;;;;8.80;6.75;;;;;;;;;;5037242;28;20045;-64
2021/09/08 08:51:10;;;;;;;9.48;6.63;;;;;;;;;;5054908;28;20088;-64
2021/09/08 08:53:36;;;;;;;11.50;6.80;;;;;;;;;;5054433;28;20049;-64
2021/09/08 08:56:03;;;;;;;8.60;7.38;;;;;;;;;;5054782;28;20045;-64
2021/09/08 08:58:30;;;;;;;9.23;6.90;;;;;;;;;;5054549;28;20057;-64
2021/09/08 09:01:19;;;;;;;8.70;6.93;;;;;;;;;;5054641;28;20056;-64
2021/09/08 09:04:03;;;;;;;7.07;6.32;;;;;;;;;;5054249;28;20052;-64
2021/09/08 09:06:31;;;;;;;7.35;6.22;;;;;;;;;;5054402;28;20495;-64
2021/09/08 09:09:11;;;;;;;8.98;6.43;;;;;;;;;;5054385;28;20103;-64
2021/09/08 09:11:39;;;;;;;7.82;6.53;;;;;;;;;;5054366;28;20454;-64
2021/09/08 09:14:09;;;;;;;7.95;5.85;;;;;;;;;;5054376;28;20087;-64
2021/09/08 09:16:37;;;;;;;7.25;6.50;;;;;;;;;;5054107;28;20045;-65
2021/09/08 09:19:04;;;;;;;10.52;6.88;;;;;;;;;;5037101;28;20061;-64
2021/09/08 09:21:30;;;;;;;8.05;5.30;;;;;;;;;;5054255;28;20053;-64
2021/09/08 09:23:59;;;;;;;8.82;6.90;;;;;;;;;;5053984;28;20052;-64
2021/09/08 09:26:32;;;;;;;7.88;6.47;;;;;;;;;;5054071;28;20498;-64
2021/09/08 09:29:13;;;;;;;7.90;6.47;;;;;;;;;;5054266;28;20049;-64
2021/09/08 09:31:56;;;;;;;9.38;6.88;;;;;;;;;;5053979;28;20087;-64
2021/09/08 09:34:26;;;;;;;8.48;6.40;;;;;;;;;;5054104;28;20470;-64
2021/09/08 09:36:55;;;;;;;8.82;6.47;;;;;;;;;;5036349;28;20044;-65
2021/09/08 09:39:22;;;;;;;7.68;6.88;;;;;;;;;;5054066;28;20049;-65
2021/09/08 09:41:49;;;;;;;7.60;6.30;;;;;;;;;;5053790;28;20427;-65
2021/09/08 09:44:16;;;;;;;6.60;5.85;;;;;;;;;;5054235;28;20052;-65
2021/09/08 09:46:44;;;;;;;12.07;6.97;;;;;;;;;;5053861;28;20072;-65
2021/09/08 09:49:13;;;;;;;7.93;6.07;;;;;;;;;;5053778;28;20045;-65
2021/09/08 09:51:40;;;;;;;7.70;6.10;;;;;;;;;;5053507;28;20106;-64
2021/09/08 09:54:07;;;;;;;6.32;5.45;;;;;;;;;;5053420;28;20045;-64
2021/09/08 09:56:33;;;;;;;7.63;6.32;;;;;;;;;;5053094;28;20053;-64
2021/09/08 09:59:00;;;;;;;9.82;6.35;;;;;;;;;;5052973;28;20073;-64
2021/09/08 10:01:27;;;;;;;8.75;6.55;;;;;;;;;;5053519;28;20045;-64
2021/09/08 10:03:54;;;;;;;7.22;6.18;;;;;;;;;;5053315;28;20140;-64
2021/09/08 10:06:21;;;;;;;7.90;6.30;;;;;;;;;;5019709;28;20171;-64
2021/09/08 10:08:49;;;;;;;8.05;6.30;;;;;;;;;;5035720;28;20396;-64
2021/09/08 10:11:21;;;;;;;8.88;5.90;;;;;;;;;;5053411;28;20118;-64
2021/09/08 10:13:56;;;;;;;8.07;6.15;;;;;;;;;;5020106;28;20053;-64
2021/09/08 10:16:23;;;;;;;9.82;5.88;;;;;;;;;;5035491;28;20048;-64
2021/09/08 10:18:50;;;;;;;6.40;5.47;;;;;;;;;;5035560;28;20110;-64
2021/09/08 10:21:19;;;;;;;10.48;6.07;;;;;;;;;;5053180;28;20488;-64
2021/09/08 10:23:53;;;;;;;8.35;7.45;;;;;;;;;;5052804;28;20045;-64
2021/09/08 10:26:19;;;;;;;10.48;5.78;;;;;;;;;;5053257;28;20049;-64
2021/09/08 10:28:46;;;;;;;10.82;6.28;;;;;;;;;;5053139;28;20090;-64
2021/09/08 10:31:14;;;;;;;9.70;5.88;;;;;;;;;;5052941;28;20557;-64
2021/09/08 10:33:42;;;;;;;7.25;5.57;;;;;;;;;;5034888;28;20112;-65
2021/09/08 10:36:12;;;;;;;8.18;6.43;;;;;;;;;;5052891;28;20045;-64
2021/09/08 10:38:39;;;;;;;8.57;5.60;;;;;;;;;;5052641;28;20098;-64
2021/09/08 10:41:07;;;;;;;6.78;5.72;;;;;;;;;;5052083;28;20053;-64
2021/09/08 10:43:38;;;;;;;6.80;5.95;;;;;;;;;;5034735;28;20053;-64
2021/09/08 10:46:06;;;;;;;6.30;5.22;;;;;;;;;;5045798;28;20045;-67
2021/09/08 10:48:44;;;;;;;6.72;5.55;;;;;;;;;;5045613;28;20446;-63
2021/09/08 10:51:20;;;;;;;9.20;5.50;;;;;;;;;;5052502;28;20064;-64
2021/09/08 10:54:05;;;;;;;9.38;6.43;;;;;;;;;;5052303;28;20419;-66
2021/09/08 10:56:42;;;;;;;6.53;5.93;;;;;;;;;;5051006;28;20053;-65
2021/09/08 10:59:12;;;;;;;8.73;6.00;;;;;;;;;;5038277;28;20381;-68
2021/09/08 11:01:40;;;;;;;7.25;5.38;;;;;;;;;;5040209;28;20511;-72
2021/09/08 11:04:15;;;;;;;6.57;5.43;;;;;;;;;;5041628;28;20067;-72
2021/09/08 11:06:45;;;;;;;8.65;6.03;;;;;;;;;;5039656;28;20077;-71
2021/09/08 11:09:18;;;;;;;7.47;5.90;;;;;;;;;;5036462;28;20049;-69
2021/09/08 11:11:52;;;;;;;6.68;5.97;;;;;;;;;;5040294;28;20053;-70
2021/09/08 11:14:20;;;;;;;6.78;6.00;;;;;;;;;;5038271;28;20053;-69
2021/09/08 11:16:47;;;;;;;6.70;5.70;;;;;;;;;;5043005;28;20250;-69
2021/09/08 11:19:14;;;;;;;6.88;5.80;;;;;;;;;;5040672;28;20053;-70
2021/09/08 11:21:41;;;;;;;6.57;5.57;;;;;;;;;;5040123;28;20053;-70
2021/09/08 11:24:10;;;;;;;5.97;5.25;;;;;;;;;;5037053;28;20758;-70
2021/09/08 11:26:39;;;;;;;6.35;5.45;;;;;;;;;;5037338;28;20053;-70
2021/09/08 11:29:06;;;;;;;7.88;6.60;;;;;;;;;;5038666;28;20057;-70
2021/09/08 11:31:37;;;;;;;6.20;5.60;;;;;;;;;;5038920;28;20163;-70
2021/09/08 11:34:15;;;;;;;6.90;5.57;;;;;;;;;;5039108;28;20045;-70
2021/09/08 11:36:42;;;;;;;6.70;5.85;;;;;;;;;;5022582;28;20053;-70
2021/09/08 11:39:15;;;;;;;6.40;5.10;;;;;;;;;;5035972;28;20045;-70
2021/09/08 11:41:55;;;;;;;7.07;5.53;;;;;;;;;;5039597;28;20049;-70
2021/09/08 11:44:22;;;;;;;7.72;5.43;;;;;;;;;;5035476;28;20115;-70
2021/09/08 11:46:48;;;;;;;6.80;5.35;;;;;;;;;;5035921;28;20577;-69
2021/09/08 11:49:16;;;;;;;7.25;5.60;;;;;;;;;;5036703;28;20457;-69
2021/09/08 11:51:45;;;;;;;6.82;5.68;;;;;;;;;;5035380;28;20504;-70
2021/09/08 11:54:18;;;;;;;6.22;5.47;;;;;;;;;;5041132;28;20053;-69
2021/09/08 11:57:01;;;;;;;7.60;5.40;;;;;;;;;;5034763;28;20049;-69
2021/09/08 11:59:33;;;;;;;6.78;5.28;;;;;;;;;;5038364;28;20106;-69
2021/09/08 12:02:00;;;;;;;6.43;5.32;;;;;;;;;;5042917;28;20056;-68
2021/09/08 12:04:29;;;;;;;6.10;5.07;;;;;;;;;;5007418;28;20128;-67
2021/09/08 12:06:57;;;;;;;6.13;5.53;;;;;;;;;;5031565;28;20075;-65
2021/09/08 12:09:31;;;;;;;6.05;5.07;;;;;;;;;;5050065;28;20496;-68
2021/09/08 12:12:02;;;;;;;6.35;5.10;;;;;;;;;;5050167;28;20385;-68
2021/09/08 12:14:32;;;;;;;6.55;4.70;;;;;;;;;;5054027;28;20084;-68
2021/09/08 12:17:02;;;;;;;4.88;4.43;;;;;;;;;;5058991;28;20050;-68
2021/09/08 12:19:31;;;;;;;5.47;4.10;;;;;;;;;;5065404;28;20053;-68
2021/09/08 12:22:11;;;;;;;5.25;4.57;;;;;;;;;;5065794;28;20076;-68
2021/09/08 12:24:49;;;;;;;6.15;4.93;;;;;;;;;;5067638;28;20050;-68
2021/09/08 12:27:23;;;;;;;5.07;4.57;;;;;;;;;;5060733;28;20076;-68
2021/09/08 12:29:53;;;;;;;5.10;4.40;;;;;;;;;;5062135;28;20152;-68
2021/09/08 12:32:20;;;;;;;5.10;4.60;;;;;;;;;;5066434;28;20091;-68
2021/09/08 12:34:50;;;;;;;6.38;3.95;;;;;;;;;;5073123;28;20526;-69
2021/09/08 12:37:18;;;;;;;4.20;3.78;;;;;;;;;;5073191;28;20029;-69
2021/09/08 12:39:51;;;;;;;4.47;3.88;;;;;;;;;;5057468;28;20116;-69
2021/09/08 12:42:20;;;;;;;4.55;4.13;;;;;;;;;;5072778;28;20045;-69
2021/09/08 12:44:51;;;;;;;4.75;3.85;;;;;;;;;;5072812;28;20102;-69
2021/09/08 12:47:20;;;;;;;5.80;4.70;;;;;;;;;;5069195;28;20048;-69
2021/09/08 12:49:48;;;;;;;4.93;4.32;;;;;;;;;;5058124;28;20049;-69
2021/09/08 12:52:14;;;;;;;4.78;4.28;;;;;;;;;;5058915;28;20127;-69
2021/09/08 12:54:42;;;;;;;5.78;4.10;;;;;;;;;;5061702;28;20053;-69
2021/09/08 12:57:10;;;;;;;5.85;4.78;;;;;;;;;;5061478;28;20500;-69
2021/09/08 12:59:38;;;;;;;5.93;4.40;;;;;;;;;;5034218;28;20056;-66
2021/09/08 13:02:08;;;;;;;7.97;4.60;;;;;;;;;;5030959;28;20107;-66
2021/09/08 13:04:35;;;;;;;4.68;4.18;;;;;;;;;;5047763;28;20084;-66
2021/09/08 13:07:03;;;;;;;4.95;4.40;;;;;;;;;;5050508;28;20052;-65
2021/09/08 13:09:32;;;;;;;5.13;4.30;;;;;;;;;;5049454;28;20060;-66
2021/09/08 13:11:59;;;;;;;4.13;3.72;;;;;;;;;;5049326;28;20418;-66
2021/09/08 13:14:26;;;;;;;4.07;3.55;;;;;;;;;;5049404;28;20048;-66
2021/09/08 13:16:53;;;;;;;4.22;3.22;;;;;;;;;;5040861;28;20108;-67
2021/09/08 13:19:20;;;;;;;3.97;3.00;;;;;;;;;;5039202;28;20045;-67
2021/09/08 13:21:47;;;;;;;5.13;3.60;;;;;;;;;;5039235;28;20053;-67
2021/09/08 13:24:15;;;;;;;4.75;3.60;;;;;;;;;;5041759;28;20103;-67
2021/09/08 13:26:43;;;;;;;4.65;3.85;;;;;;;;;;5039438;28;20053;-67
2021/09/08 13:29:12;;;;;;;3.75;3.35;;;;;;;;;;5041460;28;20041;-67
2021/09/08 13:31:40;;;;;;;5.53;4.53;;;;;;;;;;5044530;28;20053;-67
2021/09/08 13:34:07;;;;;;;6.25;3.78;;;;;;;;;;5041582;28;20045;-67
2021/09/08 13:36:35;;;;;;;7.68;3.90;;;;;;;;;;5040573;28;20470;-66
2021/09/08 13:39:04;;;;;;;5.93;3.67;;;;;;;;;;5041678;28;20056;-67
2021/09/08 13:41:31;;;;;;;4.60;4.18;;;;;;;;;;5041148;28;20053;-67
2021/09/08 13:43:58;;;;;;;7.78;3.83;;;;;;;;;;5039208;28;20111;-67
2021/09/08 13:46:25;;;;;;;4.80;4.30;;;;;;;;;;5041901;28;20050;-66
2021/09/08 13:48:52;;;;;;;3.92;3.63;;;;;;;;;;5021320;28;20054;-66
2021/09/08 13:51:19;;;;;;;4.15;3.72;;;;;;;;;;5041318;28;20045;-66
2021/09/08 13:53:46;;;;;;;5.78;3.63;;;;;;;;;;5045183;28;20522;-66
2021/09/08 13:56:14;;;;;;;5.40;4.05;;;;;;;;;;5040663;28;20045;-67
2021/09/08 13:58:41;;;;;;;3.95;3.65;;;;;;;;;;5039098;28;20045;-67
2021/09/08 14:01:07;;;;;;;4.85;3.53;;;;;;;;;;5041133;28;20049;-66
2021/09/08 14:03:34;;;;;;;4.18;3.78;;;;;;;;;;5039023;28;20049;-66
2021/09/08 14:06:01;;;;;;;9.77;4.18;;;;;;;;;;5042939;28;20044;-66
2021/09/08 14:08:29;;;;;;;4.20;3.75;;;;;;;;;;5042164;28;20055;-67
2021/09/08 14:10:55;;;;;;;4.38;3.97;;;;;;;;;;5022178;28;20056;-67
2021/09/08 14:13:22;;;;;;;5.32;3.38;;;;;;;;;;5040163;28;20150;-67
2021/09/08 14:15:49;;;;;;;4.35;3.95;;;;;;;;;;5039150;28;20053;-67
2021/09/08 14:18:15;;;;;;;4.18;3.38;;;;;;;;;;5040086;28;20530;-67
2021/09/08 14:20:42;;;;;;;5.30;3.53;;;;;;;;;;5038614;28;20053;-66
2021/09/08 14:23:09;;;;;;;4.20;3.80;;;;;;;;;;5042661;28;20076;-66
2021/09/08 14:25:37;;;;;;;3.92;3.58;;;;;;;;;;5037986;28;20575;-67
2021/09/08 14:28:04;;;;;;;5.00;3.45;;;;;;;;;;5042857;28;20377;-67
2021/09/08 14:30:31;;;;;;;3.67;3.33;;;;;;;;;;5038764;28;20049;-68
2021/09/08 14:32:57;;;;;;;4.53;3.70;;;;;;;;;;5039590;28;20049;-66